sensor_id;sensor_type;location;lat;lon;timestamp;temperature;humidity
71942;DHT22;59997;53.300;-6.260;2022-12-07T00:01:30;3.10;90.72
71942;DHT22;59997;53.300;-6.260;2022-12-07T00:03:59;2.97;90.84
71942;DHT22;59997;53.300;-6.260;2022-12-07T00:06:36;3.00;91.16
71942;DHT22;59997;53.300;-6.260;2022-12-07T00:09:05;3.09;91.23
71942;DHT22;59997;53.300;-6.260;2022-12-07T00:11:30;3.03;91.13
71942;DHT22;59997;53.300;-6.260;2022-12-07T00:13:59;2.96;91.22
71942;DHT22;59997;53.300;-6.260;2022-12-07T00:16:27;2.95;91.25
71942;DHT22;59997;53.300;-6.260;2022-12-07T00:18:53;2.88;91.29
71942;DHT22;59997;53.300;-6.260;2022-12-07T00:21:23;2.78;91.30
71942;DHT22;59997;53.300;-6.260;2022-12-07T00:23:51;2.78;91.44
71942;DHT22;59997;53.300;-6.260;2022-12-07T00:26:24;2.74;91.42
71942;DHT22;59997;53.300;-6.260;2022-12-07T00:28:52;2.68;91.61
71942;DHT22;59997;53.300;-6.260;2022-12-07T00:31:20;2.66;91.62
71942;DHT22;59997;53.300;-6.260;2022-12-07T00:33:46;2.78;91.70
71942;DHT22;59997;53.300;-6.260;2022-12-07T00:36:17;2.85;91.52
71942;DHT22;59997;53.300;-6.260;2022-12-07T00:38:43;2.93;91.51
71942;DHT22;59997;53.300;-6.260;2022-12-07T00:41:20;2.79;91.37
71942;DHT22;59997;53.300;-6.260;2022-12-07T00:43:50;2.68;91.38
71942;DHT22;59997;53.300;-6.260;2022-12-07T00:46:18;2.61;91.53
71942;DHT22;59997;53.300;-6.260;2022-12-07T00:48:44;2.62;91.65
71942;DHT22;59997;53.300;-6.260;2022-12-07T00:51:15;2.69;91.72
71942;DHT22;59997;53.300;-6.260;2022-12-07T00:53:42;2.75;91.74
71942;DHT22;59997;53.300;-6.260;2022-12-07T00:56:17;2.88;91.61
71942;DHT22;59997;53.300;-6.260;2022-12-07T00:58:43;2.97;91.44
71942;DHT22;59997;53.300;-6.260;2022-12-07T01:01:10;3.02;91.38
71942;DHT22;59997;53.300;-6.260;2022-12-07T01:03:37;3.02;91.38
71942;DHT22;59997;53.300;-6.260;2022-12-07T01:06:03;3.02;91.46
71942;DHT22;59997;53.300;-6.260;2022-12-07T01:08:29;3.07;91.35
71942;DHT22;59997;53.300;-6.260;2022-12-07T01:11:04;3.16;91.23
71942;DHT22;59997;53.300;-6.260;2022-12-07T01:13:31;3.32;90.86
71942;DHT22;59997;53.300;-6.260;2022-12-07T01:15:59;3.27;90.73
71942;DHT22;59997;53.300;-6.260;2022-12-07T01:18:30;3.28;90.64
71942;DHT22;59997;53.300;-6.260;2022-12-07T01:21:12;3.24;90.80
71942;DHT22;59997;53.300;-6.260;2022-12-07T01:23:39;3.28;90.76
71942;DHT22;59997;53.300;-6.260;2022-12-07T01:26:10;3.18;90.86
71942;DHT22;59997;53.300;-6.260;2022-12-07T01:28:37;3.14;91.02
71942;DHT22;59997;53.300;-6.260;2022-12-07T01:31:09;3.11;91.05
71942;DHT22;59997;53.300;-6.260;2022-12-07T01:33:38;3.17;91.00
71942;DHT22;59997;53.300;-6.260;2022-12-07T01:39:08;3.24;90.76
71942;DHT22;59997;53.300;-6.260;2022-12-07T01:41:41;3.14;90.87
71942;DHT22;59997;53.300;-6.260;2022-12-07T01:47:18;3.16;90.83
71942;DHT22;59997;53.300;-6.260;2022-12-07T01:49:44;3.07;90.93
71942;DHT22;59997;53.300;-6.260;2022-12-07T01:52:31;3.04;91.09
71942;DHT22;59997;53.300;-6.260;2022-12-07T01:55:02;2.97;91.14
71942;DHT22;59997;53.300;-6.260;2022-12-07T01:57:31;2.89;91.20
71942;DHT22;59997;53.300;-6.260;2022-12-07T01:59:59;2.79;91.23
71942;DHT22;59997;53.300;-6.260;2022-12-07T02:02:33;2.82;91.45
71942;DHT22;59997;53.300;-6.260;2022-12-07T02:05:02;2.76;91.34
71942;DHT22;59997;53.300;-6.260;2022-12-07T02:07:32;2.81;91.40
71942;DHT22;59997;53.300;-6.260;2022-12-07T02:10:19;2.92;91.17
71942;DHT22;59997;53.300;-6.260;2022-12-07T02:12:49;2.88;91.10
71942;DHT22;59997;53.300;-6.260;2022-12-07T02:15:18;2.86;91.22
71942;DHT22;59997;53.300;-6.260;2022-12-07T02:29:35;2.86;91.05
71942;DHT22;59997;53.300;-6.260;2022-12-07T02:32:34;2.86;91.11
71942;DHT22;59997;53.300;-6.260;2022-12-07T02:41:19;2.78;90.88
71942;DHT22;59997;53.300;-6.260;2022-12-07T02:43:51;2.76;90.91
71942;DHT22;59997;53.300;-6.260;2022-12-07T02:46:28;2.81;90.91
71942;DHT22;59997;53.300;-6.260;2022-12-07T02:48:57;2.78;90.91
71942;DHT22;59997;53.300;-6.260;2022-12-07T02:51:25;2.66;90.93
71942;DHT22;59997;53.300;-6.260;2022-12-07T02:53:51;2.62;90.91
71942;DHT22;59997;53.300;-6.260;2022-12-07T03:08:39;2.58;91.18
71942;DHT22;59997;53.300;-6.260;2022-12-07T03:11:15;2.72;90.93
71942;DHT22;59997;53.300;-6.260;2022-12-07T03:16:25;2.78;90.58
71942;DHT22;59997;53.300;-6.260;2022-12-07T03:18:55;2.89;90.24
71942;DHT22;59997;53.300;-6.260;2022-12-07T03:21:32;3.06;89.41
71942;DHT22;59997;53.300;-6.260;2022-12-07T03:24:05;2.99;89.46
71942;DHT22;59997;53.300;-6.260;2022-12-07T03:26:40;3.00;89.19
71942;DHT22;59997;53.300;-6.260;2022-12-07T03:29:12;2.99;89.15
71942;DHT22;59997;53.300;-6.260;2022-12-07T03:31:42;2.82;89.65
71942;DHT22;59997;53.300;-6.260;2022-12-07T03:34:33;2.76;89.96
71942;DHT22;59997;53.300;-6.260;2022-12-07T03:37:07;2.79;89.98
71942;DHT22;59997;53.300;-6.260;2022-12-07T03:39:43;2.92;89.84
71942;DHT22;59997;53.300;-6.260;2022-12-07T03:42:10;2.85;89.83
71942;DHT22;59997;53.300;-6.260;2022-12-07T03:44:39;2.78;90.13
71942;DHT22;59997;53.300;-6.260;2022-12-07T03:47:22;2.75;90.03
71942;DHT22;59997;53.300;-6.260;2022-12-07T03:50:00;2.76;89.88
71942;DHT22;59997;53.300;-6.260;2022-12-07T03:53:00;2.82;89.85
71942;DHT22;59997;53.300;-6.260;2022-12-07T03:55:34;2.85;89.15
71942;DHT22;59997;53.300;-6.260;2022-12-07T03:58:06;2.82;89.28
71942;DHT22;59997;53.300;-6.260;2022-12-07T04:00:33;2.86;88.76
71942;DHT22;59997;53.300;-6.260;2022-12-07T04:02:59;2.99;87.94
71942;DHT22;59997;53.300;-6.260;2022-12-07T04:05:24;2.92;88.48
71942;DHT22;59997;53.300;-6.260;2022-12-07T04:07:51;2.85;88.63
71942;DHT22;59997;53.300;-6.260;2022-12-07T04:10:17;2.78;89.14
71942;DHT22;59997;53.300;-6.260;2022-12-07T04:12:43;2.76;89.23
71942;DHT22;59997;53.300;-6.260;2022-12-07T04:15:11;2.65;89.50
71942;DHT22;59997;53.300;-6.260;2022-12-07T04:17:40;2.58;89.83
71942;DHT22;59997;53.300;-6.260;2022-12-07T04:20:08;2.55;89.93
71942;DHT22;59997;53.300;-6.260;2022-12-07T04:22:34;2.50;89.96
71942;DHT22;59997;53.300;-6.260;2022-12-07T04:25:00;2.52;89.99
71942;DHT22;59997;53.300;-6.260;2022-12-07T04:27:26;2.65;89.68
71942;DHT22;59997;53.300;-6.260;2022-12-07T04:29:52;2.58;89.90
71942;DHT22;59997;53.300;-6.260;2022-12-07T04:32:19;2.54;90.01
71942;DHT22;59997;53.300;-6.260;2022-12-07T04:34:45;2.61;89.81
71942;DHT22;59997;53.300;-6.260;2022-12-07T04:37:10;2.64;89.73
71942;DHT22;59997;53.300;-6.260;2022-12-07T04:39:36;2.68;89.43
71942;DHT22;59997;53.300;-6.260;2022-12-07T04:42:03;2.57;89.61
71942;DHT22;59997;53.300;-6.260;2022-12-07T04:44:30;2.47;89.83
71942;DHT22;59997;53.300;-6.260;2022-12-07T04:46:56;2.41;90.05
71942;DHT22;59997;53.300;-6.260;2022-12-07T04:49:25;2.47;90.06
71942;DHT22;59997;53.300;-6.260;2022-12-07T04:51:55;2.52;89.74
71942;DHT22;59997;53.300;-6.260;2022-12-07T04:54:21;2.44;89.87
71942;DHT22;59997;53.300;-6.260;2022-12-07T04:56:48;2.41;89.99
71942;DHT22;59997;53.300;-6.260;2022-12-07T04:59:15;2.37;90.11
71942;DHT22;59997;53.300;-6.260;2022-12-07T05:01:43;2.33;90.19
71942;DHT22;59997;53.300;-6.260;2022-12-07T05:04:09;2.30;90.31
71942;DHT22;59997;53.300;-6.260;2022-12-07T05:06:39;2.30;90.45
71942;DHT22;59997;53.300;-6.260;2022-12-07T05:09:06;2.34;90.33
71942;DHT22;59997;53.300;-6.260;2022-12-07T05:11:31;2.29;90.34
71942;DHT22;59997;53.300;-6.260;2022-12-07T05:14:19;2.30;90.36
71942;DHT22;59997;53.300;-6.260;2022-12-07T05:16:48;2.24;90.43
71942;DHT22;59997;53.300;-6.260;2022-12-07T05:19:15;2.38;90.41
71942;DHT22;59997;53.300;-6.260;2022-12-07T05:21:41;2.41;90.09
71942;DHT22;59997;53.300;-6.260;2022-12-07T05:24:08;2.36;90.21
71942;DHT22;59997;53.300;-6.260;2022-12-07T05:26:34;2.33;90.37
71942;DHT22;59997;53.300;-6.260;2022-12-07T05:29:01;2.38;90.28
71942;DHT22;59997;53.300;-6.260;2022-12-07T05:31:27;2.51;90.11
71942;DHT22;59997;53.300;-6.260;2022-12-07T05:33:55;2.52;89.81
71942;DHT22;59997;53.300;-6.260;2022-12-07T05:36:23;2.48;89.86
71942;DHT22;59997;53.300;-6.260;2022-12-07T05:38:50;2.38;90.08
71942;DHT22;59997;53.300;-6.260;2022-12-07T05:41:19;2.38;90.19
71942;DHT22;59997;53.300;-6.260;2022-12-07T05:44:04;2.40;90.19
71942;DHT22;59997;53.300;-6.260;2022-12-07T05:46:30;2.54;89.88
71942;DHT22;59997;53.300;-6.260;2022-12-07T05:48:56;2.54;89.66
71942;DHT22;59997;53.300;-6.260;2022-12-07T05:51:21;2.52;89.60
71942;DHT22;59997;53.300;-6.260;2022-12-07T05:53:48;2.47;89.68
71942;DHT22;59997;53.300;-6.260;2022-12-07T05:56:14;2.40;89.88
71942;DHT22;59997;53.300;-6.260;2022-12-07T05:58:40;2.36;89.99
71942;DHT22;59997;53.300;-6.260;2022-12-07T06:01:24;2.30;90.21
71942;DHT22;59997;53.300;-6.260;2022-12-07T06:03:49;2.27;90.31
71942;DHT22;59997;53.300;-6.260;2022-12-07T06:06:16;2.41;90.27
71942;DHT22;59997;53.300;-6.260;2022-12-07T06:08:41;2.36;90.22
71942;DHT22;59997;53.300;-6.260;2022-12-07T06:11:07;2.30;90.29
71942;DHT22;59997;53.300;-6.260;2022-12-07T06:13:50;2.33;90.25
71942;DHT22;59997;53.300;-6.260;2022-12-07T06:16:18;2.33;90.15
71942;DHT22;59997;53.300;-6.260;2022-12-07T06:18:43;2.38;90.06
71942;DHT22;59997;53.300;-6.260;2022-12-07T06:21:09;2.31;90.06
71942;DHT22;59997;53.300;-6.260;2022-12-07T06:23:35;2.27;90.13
71942;DHT22;59997;53.300;-6.260;2022-12-07T06:26:01;2.23;90.28
71942;DHT22;59997;53.300;-6.260;2022-12-07T06:28:27;2.31;90.03
71942;DHT22;59997;53.300;-6.260;2022-12-07T06:31:02;2.37;89.86
71942;DHT22;59997;53.300;-6.260;2022-12-07T06:33:29;2.34;90.02
71942;DHT22;59997;53.300;-6.260;2022-12-07T06:35:55;2.31;90.14
71942;DHT22;59997;53.300;-6.260;2022-12-07T06:38:22;2.33;90.04
71942;DHT22;59997;53.300;-6.260;2022-12-07T06:40:48;2.42;89.79
71942;DHT22;59997;53.300;-6.260;2022-12-07T06:43:15;2.38;89.84
71942;DHT22;59997;53.300;-6.260;2022-12-07T06:45:44;2.40;89.81
71942;DHT22;59997;53.300;-6.260;2022-12-07T06:48:11;2.29;89.87
71942;DHT22;59997;53.300;-6.260;2022-12-07T06:50:37;2.34;89.89
71942;DHT22;59997;53.300;-6.260;2022-12-07T06:53:04;2.26;90.12
71942;DHT22;59997;53.300;-6.260;2022-12-07T06:55:33;2.16;90.14
71942;DHT22;59997;53.300;-6.260;2022-12-07T06:57:59;2.07;90.20
71942;DHT22;59997;53.300;-6.260;2022-12-07T07:00:25;2.07;90.24
71942;DHT22;59997;53.300;-6.260;2022-12-07T07:02:51;2.12;90.23
71942;DHT22;59997;53.300;-6.260;2022-12-07T07:05:17;2.16;90.14
71942;DHT22;59997;53.300;-6.260;2022-12-07T07:07:44;2.09;90.11
71942;DHT22;59997;53.300;-6.260;2022-12-07T07:10:10;1.98;90.19
71942;DHT22;59997;53.300;-6.260;2022-12-07T07:12:36;1.81;90.27
71942;DHT22;59997;53.300;-6.260;2022-12-07T07:15:01;1.72;90.57
71942;DHT22;59997;53.300;-6.260;2022-12-07T07:17:27;1.61;90.60
71942;DHT22;59997;53.300;-6.260;2022-12-07T07:19:54;1.50;90.66
71942;DHT22;59997;53.300;-6.260;2022-12-07T07:22:20;1.51;90.88
71942;DHT22;59997;53.300;-6.260;2022-12-07T07:24:46;1.33;90.85
71942;DHT22;59997;53.300;-6.260;2022-12-07T07:27:13;1.26;91.13
71942;DHT22;59997;53.300;-6.260;2022-12-07T07:29:38;1.12;91.16
71942;DHT22;59997;53.300;-6.260;2022-12-07T07:32:05;1.05;91.28
71942;DHT22;59997;53.300;-6.260;2022-12-07T07:34:31;0.96;91.46
71942;DHT22;59997;53.300;-6.260;2022-12-07T07:36:56;0.85;91.52
71942;DHT22;59997;53.300;-6.260;2022-12-07T07:39:21;0.73;91.51
71942;DHT22;59997;53.300;-6.260;2022-12-07T07:41:49;0.71;91.65
71942;DHT22;59997;53.300;-6.260;2022-12-07T07:44:15;0.68;91.84
71942;DHT22;59997;53.300;-6.260;2022-12-07T07:46:43;0.68;91.87
71942;DHT22;59997;53.300;-6.260;2022-12-07T07:49:10;0.63;91.83
71942;DHT22;59997;53.300;-6.260;2022-12-07T07:51:38;0.61;91.98
71942;DHT22;59997;53.300;-6.260;2022-12-07T07:54:05;0.60;91.93
71942;DHT22;59997;53.300;-6.260;2022-12-07T07:56:31;0.53;91.97
71942;DHT22;59997;53.300;-6.260;2022-12-07T07:58:58;0.46;92.02
71942;DHT22;59997;53.300;-6.260;2022-12-07T08:01:24;0.49;92.08
71942;DHT22;59997;53.300;-6.260;2022-12-07T08:03:50;0.59;92.27
71942;DHT22;59997;53.300;-6.260;2022-12-07T08:06:15;0.43;92.15
71942;DHT22;59997;53.300;-6.260;2022-12-07T08:08:41;0.32;92.15
71942;DHT22;59997;53.300;-6.260;2022-12-07T08:11:08;0.28;92.34
71942;DHT22;59997;53.300;-6.260;2022-12-07T08:13:36;0.38;92.48
71942;DHT22;59997;53.300;-6.260;2022-12-07T08:16:05;0.41;92.41
71942;DHT22;59997;53.300;-6.260;2022-12-07T08:18:36;0.29;92.25
71942;DHT22;59997;53.300;-6.260;2022-12-07T08:21:04;0.41;92.37
71942;DHT22;59997;53.300;-6.260;2022-12-07T08:23:32;0.50;92.34
71942;DHT22;59997;53.300;-6.260;2022-12-07T08:26:05;0.56;92.31
71942;DHT22;59997;53.300;-6.260;2022-12-07T08:28:31;0.67;92.10
71942;DHT22;59997;53.300;-6.260;2022-12-07T08:31:21;0.67;91.87
71942;DHT22;59997;53.300;-6.260;2022-12-07T08:33:50;0.70;91.69
71942;DHT22;59997;53.300;-6.260;2022-12-07T08:36:17;0.68;91.60
71942;DHT22;59997;53.300;-6.260;2022-12-07T08:38:44;0.78;91.36
71942;DHT22;59997;53.300;-6.260;2022-12-07T08:41:11;0.77;91.34
71942;DHT22;59997;53.300;-6.260;2022-12-07T08:43:39;0.71;91.33
71942;DHT22;59997;53.300;-6.260;2022-12-07T08:46:37;0.63;91.39
71942;DHT22;59997;53.300;-6.260;2022-12-07T08:49:43;0.60;91.46
71942;DHT22;59997;53.300;-6.260;2022-12-07T08:52:15;0.56;91.41
71942;DHT22;59997;53.300;-6.260;2022-12-07T08:54:42;0.59;91.39
71942;DHT22;59997;53.300;-6.260;2022-12-07T08:57:09;0.41;91.32
71942;DHT22;59997;53.300;-6.260;2022-12-07T08:59:35;0.30;91.43
71942;DHT22;59997;53.300;-6.260;2022-12-07T09:02:04;0.24;91.64
71942;DHT22;59997;53.300;-6.260;2022-12-07T09:04:31;0.26;91.79
71942;DHT22;59997;53.300;-6.260;2022-12-07T09:07:01;0.04;91.70
71942;DHT22;59997;53.300;-6.260;2022-12-07T09:09:27;-0.09;91.67
71942;DHT22;59997;53.300;-6.260;2022-12-07T09:11:53;-0.20;91.95
71942;DHT22;59997;53.300;-6.260;2022-12-07T09:14:22;-0.19;91.97
71942;DHT22;59997;53.300;-6.260;2022-12-07T09:16:47;-0.13;92.00
71942;DHT22;59997;53.300;-6.260;2022-12-07T09:19:16;-0.05;92.03
71942;DHT22;59997;53.300;-6.260;2022-12-07T09:21:41;0.08;92.13
71942;DHT22;59997;53.300;-6.260;2022-12-07T09:24:07;0.15;92.13
71942;DHT22;59997;53.300;-6.260;2022-12-07T09:26:35;0.25;92.11
71942;DHT22;59997;53.300;-6.260;2022-12-07T09:29:02;0.29;92.12
71942;DHT22;59997;53.300;-6.260;2022-12-07T09:31:28;0.30;92.06
71942;DHT22;59997;53.300;-6.260;2022-12-07T09:33:56;0.33;92.19
71942;DHT22;59997;53.300;-6.260;2022-12-07T09:36:22;0.36;92.17
71942;DHT22;59997;53.300;-6.260;2022-12-07T09:38:48;0.33;92.01
71942;DHT22;59997;53.300;-6.260;2022-12-07T09:41:13;0.36;92.05
71942;DHT22;59997;53.300;-6.260;2022-12-07T09:43:42;0.39;92.04
71942;DHT22;59997;53.300;-6.260;2022-12-07T09:46:12;0.36;91.93
71942;DHT22;59997;53.300;-6.260;2022-12-07T09:48:40;0.39;91.81
71942;DHT22;59997;53.300;-6.260;2022-12-07T09:51:22;0.46;91.77
71942;DHT22;59997;53.300;-6.260;2022-12-07T09:53:50;0.53;91.70
71942;DHT22;59997;53.300;-6.260;2022-12-07T09:56:18;0.52;91.55
71942;DHT22;59997;53.300;-6.260;2022-12-07T09:58:48;0.57;91.51
71942;DHT22;59997;53.300;-6.260;2022-12-07T10:01:16;0.91;91.38
71942;DHT22;59997;53.300;-6.260;2022-12-07T10:04:18;1.26;90.65
71942;DHT22;59997;53.300;-6.260;2022-12-07T10:06:51;1.28;90.49
71942;DHT22;59997;53.300;-6.260;2022-12-07T10:09:19;1.18;90.55
71942;DHT22;59997;53.300;-6.260;2022-12-07T10:12:11;1.74;90.05
71942;DHT22;59997;53.300;-6.260;2022-12-07T10:15:03;2.22;89.08
71942;DHT22;59997;53.300;-6.260;2022-12-07T10:17:37;2.78;87.84
71942;DHT22;59997;53.300;-6.260;2022-12-07T10:20:22;2.72;86.77
71942;DHT22;59997;53.300;-6.260;2022-12-07T10:23:16;2.29;87.17
71942;DHT22;59997;53.300;-6.260;2022-12-07T10:25:42;2.20;87.64
71942;DHT22;59997;53.300;-6.260;2022-12-07T10:28:17;2.05;88.03
71942;DHT22;59997;53.300;-6.260;2022-12-07T10:31:00;2.06;87.99
71942;DHT22;59997;53.300;-6.260;2022-12-07T10:33:49;3.11;86.23
71942;DHT22;59997;53.300;-6.260;2022-12-07T10:36:38;3.10;86.19
71942;DHT22;59997;53.300;-6.260;2022-12-07T10:39:27;2.91;86.60
71942;DHT22;59997;53.300;-6.260;2022-12-07T10:42:02;3.07;86.40
71942;DHT22;59997;53.300;-6.260;2022-12-07T10:44:30;3.16;85.84
71942;DHT22;59997;53.300;-6.260;2022-12-07T10:47:30;3.66;84.52
71942;DHT22;59997;53.300;-6.260;2022-12-07T10:50:21;4.74;81.63
71942;DHT22;59997;53.300;-6.260;2022-12-07T10:53:05;5.38;80.89
71942;DHT22;59997;53.300;-6.260;2022-12-07T11:05:16;5.19;78.66
71942;DHT22;59997;53.300;-6.260;2022-12-07T11:08:25;5.04;79.48
71942;DHT22;59997;53.300;-6.260;2022-12-07T11:11:10;5.85;77.73
71942;DHT22;59997;53.300;-6.260;2022-12-07T11:14:15;5.15;79.68
71942;DHT22;59997;53.300;-6.260;2022-12-07T11:17:09;5.74;78.31
71942;DHT22;59997;53.300;-6.260;2022-12-07T11:22:51;6.60;75.93
71942;DHT22;59997;53.300;-6.260;2022-12-07T11:25:40;6.81;76.82
71942;DHT22;59997;53.300;-6.260;2022-12-07T11:34:49;7.13;73.71
71942;DHT22;59997;53.300;-6.260;2022-12-07T11:36:54;7.10;72.53
71942;DHT22;59997;53.300;-6.260;2022-12-07T11:42:49;7.17;72.32
71942;DHT22;59997;53.300;-6.260;2022-12-07T11:45:23;7.17;72.40
71942;DHT22;59997;53.300;-6.260;2022-12-07T11:48:04;7.43;73.32
71942;DHT22;59997;53.300;-6.260;2022-12-07T11:51:02;7.34;72.43
71942;DHT22;59997;53.300;-6.260;2022-12-07T11:53:45;7.06;72.79
71942;DHT22;59997;53.300;-6.260;2022-12-07T11:56:16;6.99;72.23
71942;DHT22;59997;53.300;-6.260;2022-12-07T11:58:53;6.93;71.55
71942;DHT22;59997;53.300;-6.260;2022-12-07T12:04:30;7.05;71.65
71942;DHT22;59997;53.300;-6.260;2022-12-07T12:07:00;7.12;70.37
71942;DHT22;59997;53.300;-6.260;2022-12-07T12:09:34;6.75;70.94
71942;DHT22;59997;53.300;-6.260;2022-12-07T12:15:24;6.71;70.55
71942;DHT22;59997;53.300;-6.260;2022-12-07T12:20:53;6.53;71.72
71942;DHT22;59997;53.300;-6.260;2022-12-07T12:23:41;6.63;73.91
71942;DHT22;59997;53.300;-6.260;2022-12-07T12:26:17;6.81;72.10
71942;DHT22;59997;53.300;-6.260;2022-12-07T12:31:32;6.51;72.19
71942;DHT22;59997;53.300;-6.260;2022-12-07T12:34:02;6.68;72.43
71942;DHT22;59997;53.300;-6.260;2022-12-07T12:36:45;6.74;71.96
71942;DHT22;59997;53.300;-6.260;2022-12-07T12:47:02;6.20;73.13
71942;DHT22;59997;53.300;-6.260;2022-12-07T12:49:36;5.77;73.74
71942;DHT22;59997;53.300;-6.260;2022-12-07T12:55:13;5.28;75.41
71942;DHT22;59997;53.300;-6.260;2022-12-07T12:57:44;5.22;76.50
71942;DHT22;59997;53.300;-6.260;2022-12-07T13:00:20;5.00;77.04
71942;DHT22;59997;53.300;-6.260;2022-12-07T13:02:58;4.94;78.16
71942;DHT22;59997;53.300;-6.260;2022-12-07T13:05:28;5.16;77.71
71942;DHT22;59997;53.300;-6.260;2022-12-07T13:08:21;5.16;78.06
71942;DHT22;59997;53.300;-6.260;2022-12-07T13:10:49;5.04;77.34
71942;DHT22;59997;53.300;-6.260;2022-12-07T13:15:51;4.80;78.77
71942;DHT22;59997;53.300;-6.260;2022-12-07T13:18:40;4.65;79.29
71942;DHT22;59997;53.300;-6.260;2022-12-07T13:26:36;4.63;79.17
71942;DHT22;59997;53.300;-6.260;2022-12-07T13:29:13;4.70;79.48
71942;DHT22;59997;53.300;-6.260;2022-12-07T13:31:52;4.70;78.53
71942;DHT22;59997;53.300;-6.260;2022-12-07T13:34:39;4.67;78.99
71942;DHT22;59997;53.300;-6.260;2022-12-07T13:37:27;4.74;78.79
71942;DHT22;59997;53.300;-6.260;2022-12-07T13:39:58;4.65;79.76
71942;DHT22;59997;53.300;-6.260;2022-12-07T13:42:33;4.56;80.72
71942;DHT22;59997;53.300;-6.260;2022-12-07T13:45:13;4.56;80.46
71942;DHT22;59997;53.300;-6.260;2022-12-07T13:47:49;4.60;79.96
71942;DHT22;59997;53.300;-6.260;2022-12-07T13:50:29;4.67;80.29
71942;DHT22;59997;53.300;-6.260;2022-12-07T13:53:11;4.60;80.64
71942;DHT22;59997;53.300;-6.260;2022-12-07T13:55:44;4.56;80.73
71942;DHT22;59997;53.300;-6.260;2022-12-07T13:58:10;4.56;79.76
71942;DHT22;59997;53.300;-6.260;2022-12-07T14:00:39;4.55;80.50
71942;DHT22;59997;53.300;-6.260;2022-12-07T14:05:40;4.38;81.21
71942;DHT22;59997;53.300;-6.260;2022-12-07T14:10:54;4.57;80.84
71942;DHT22;59997;53.300;-6.260;2022-12-07T14:13:51;4.52;80.78
71942;DHT22;59997;53.300;-6.260;2022-12-07T14:16:35;4.56;80.80
71942;DHT22;59997;53.300;-6.260;2022-12-07T14:19:03;4.38;81.37
71942;DHT22;59997;53.300;-6.260;2022-12-07T14:21:33;4.20;81.79
71942;DHT22;59997;53.300;-6.260;2022-12-07T14:24:15;4.32;81.47
71942;DHT22;59997;53.300;-6.260;2022-12-07T14:26:43;4.42;79.30
71942;DHT22;59997;53.300;-6.260;2022-12-07T14:31:58;4.50;77.89
71942;DHT22;59997;53.300;-6.260;2022-12-07T14:34:29;4.41;77.91
71942;DHT22;59997;53.300;-6.260;2022-12-07T14:36:55;4.41;78.17
71942;DHT22;59997;53.300;-6.260;2022-12-07T14:39:22;4.22;79.59
71942;DHT22;59997;53.300;-6.260;2022-12-07T14:41:48;4.18;79.93
71942;DHT22;59997;53.300;-6.260;2022-12-07T14:44:27;4.17;79.47
71942;DHT22;59997;53.300;-6.260;2022-12-07T14:46:55;4.03;80.15
71942;DHT22;59997;53.300;-6.260;2022-12-07T14:49:21;3.94;80.82
71942;DHT22;59997;53.300;-6.260;2022-12-07T14:51:47;3.94;80.87
71942;DHT22;59997;53.300;-6.260;2022-12-07T14:54:18;4.28;78.99
71942;DHT22;59997;53.300;-6.260;2022-12-07T14:56:44;4.49;78.14
71942;DHT22;59997;53.300;-6.260;2022-12-07T14:59:12;4.55;78.35
71942;DHT22;59997;53.300;-6.260;2022-12-07T15:01:38;4.46;78.71
71942;DHT22;59997;53.300;-6.260;2022-12-07T15:04:04;4.35;79.35
71942;DHT22;59997;53.300;-6.260;2022-12-07T15:06:31;4.48;78.93
71942;DHT22;59997;53.300;-6.260;2022-12-07T15:08:57;4.49;78.81
71942;DHT22;59997;53.300;-6.260;2022-12-07T15:11:24;4.46;78.80
71942;DHT22;59997;53.300;-6.260;2022-12-07T15:13:51;4.55;78.61
71942;DHT22;59997;53.300;-6.260;2022-12-07T15:16:37;4.50;78.76
71942;DHT22;59997;53.300;-6.260;2022-12-07T15:19:12;4.53;79.07
71942;DHT22;59997;53.300;-6.260;2022-12-07T15:21:38;4.52;79.32
71942;DHT22;59997;53.300;-6.260;2022-12-07T15:24:04;4.49;79.28
71942;DHT22;59997;53.300;-6.260;2022-12-07T15:26:30;4.49;79.05
71942;DHT22;59997;53.300;-6.260;2022-12-07T15:28:58;4.69;78.33
71942;DHT22;59997;53.300;-6.260;2022-12-07T15:31:25;4.79;77.99
71942;DHT22;59997;53.300;-6.260;2022-12-07T15:33:51;4.67;78.67
71942;DHT22;59997;53.300;-6.260;2022-12-07T15:36:23;4.60;78.62
71942;DHT22;59997;53.300;-6.260;2022-12-07T15:38:49;4.53;79.19
71942;DHT22;59997;53.300;-6.260;2022-12-07T15:41:16;4.45;79.53
71942;DHT22;59997;53.300;-6.260;2022-12-07T15:43:42;4.37;79.68
71942;DHT22;59997;53.300;-6.260;2022-12-07T15:46:36;4.20;80.76
71942;DHT22;59997;53.300;-6.260;2022-12-07T15:49:07;4.27;79.86
71942;DHT22;59997;53.300;-6.260;2022-12-07T15:51:35;4.38;79.90
71942;DHT22;59997;53.300;-6.260;2022-12-07T15:54:00;4.30;80.52
71942;DHT22;59997;53.300;-6.260;2022-12-07T15:56:26;4.30;80.37
71942;DHT22;59997;53.300;-6.260;2022-12-07T15:58:52;4.30;80.56
71942;DHT22;59997;53.300;-6.260;2022-12-07T16:01:21;4.32;79.87
71942;DHT22;59997;53.300;-6.260;2022-12-07T16:03:47;4.28;79.96
71942;DHT22;59997;53.300;-6.260;2022-12-07T16:06:16;4.22;79.92
71942;DHT22;59997;53.300;-6.260;2022-12-07T16:08:45;4.17;80.08
71942;DHT22;59997;53.300;-6.260;2022-12-07T16:11:12;4.10;79.86
71942;DHT22;59997;53.300;-6.260;2022-12-07T16:13:41;3.97;80.43
71942;DHT22;59997;53.300;-6.260;2022-12-07T16:16:12;3.79;81.18
71942;DHT22;59997;53.300;-6.260;2022-12-07T16:18:39;3.73;81.98
71942;DHT22;59997;53.300;-6.260;2022-12-07T16:21:04;3.70;81.96
71942;DHT22;59997;53.300;-6.260;2022-12-07T16:23:31;3.38;82.48
71942;DHT22;59997;53.300;-6.260;2022-12-07T16:26:10;3.38;83.24
71942;DHT22;59997;53.300;-6.260;2022-12-07T16:28:36;3.59;82.71
71942;DHT22;59997;53.300;-6.260;2022-12-07T16:31:07;3.58;82.78
71942;DHT22;59997;53.300;-6.260;2022-12-07T16:33:37;3.30;83.12
71942;DHT22;59997;53.300;-6.260;2022-12-07T16:36:06;2.97;84.26
71942;DHT22;59997;53.300;-6.260;2022-12-07T16:38:33;2.85;84.93
71942;DHT22;59997;53.300;-6.260;2022-12-07T16:41:00;2.75;85.53
71942;DHT22;59997;53.300;-6.260;2022-12-07T16:43:25;3.07;85.11
71942;DHT22;59997;53.300;-6.260;2022-12-07T16:45:51;3.24;84.69
71942;DHT22;59997;53.300;-6.260;2022-12-07T16:48:17;3.34;84.59
71942;DHT22;59997;53.300;-6.260;2022-12-07T16:50:43;3.21;84.61
71942;DHT22;59997;53.300;-6.260;2022-12-07T16:53:10;3.24;85.00
71942;DHT22;59997;53.300;-6.260;2022-12-07T16:55:40;3.18;85.24
71942;DHT22;59997;53.300;-6.260;2022-12-07T16:58:08;3.07;85.67
71942;DHT22;59997;53.300;-6.260;2022-12-07T17:00:34;2.95;85.77
71942;DHT22;59997;53.300;-6.260;2022-12-07T17:03:00;3.10;85.71
71942;DHT22;59997;53.300;-6.260;2022-12-07T17:05:26;3.16;85.82
71942;DHT22;59997;53.300;-6.260;2022-12-07T17:07:55;3.21;85.67
71942;DHT22;59997;53.300;-6.260;2022-12-07T17:10:21;3.26;85.65
71942;DHT22;59997;53.300;-6.260;2022-12-07T17:12:47;3.31;85.42
71942;DHT22;59997;53.300;-6.260;2022-12-07T17:15:14;3.38;85.27
71942;DHT22;59997;53.300;-6.260;2022-12-07T17:17:46;3.21;85.79
71942;DHT22;59997;53.300;-6.260;2022-12-07T17:20:16;3.07;86.25
71942;DHT22;59997;53.300;-6.260;2022-12-07T17:22:45;3.02;86.42
71942;DHT22;59997;53.300;-6.260;2022-12-07T17:25:13;3.11;86.46
71942;DHT22;59997;53.300;-6.260;2022-12-07T17:27:42;2.97;86.36
71942;DHT22;59997;53.300;-6.260;2022-12-07T17:30:17;2.75;86.62
71942;DHT22;59997;53.300;-6.260;2022-12-07T17:32:44;2.45;87.01
71942;DHT22;59997;53.300;-6.260;2022-12-07T17:35:11;2.19;87.50